Time;durP1;ratioP1;P1;durP2;ratioP2;P2;SDS_P1;SDS_P2;PMS_P1;PMS_P2;Temp;Humidity;BMP_temperature;BMP_pressure;BME280_temperature;BME280_humidity;BME280_pressure;Samples;Min_cycle;Max_cycle;Signal;HPM_P1;HPM_P2
2021/07/28 00:02:05;;;;;;;7.40;6.70;;;19.80;99.90;;;;;;5093601;28;20525;-70
2021/07/28 00:04:35;;;;;;;7.30;6.80;;;19.80;99.90;;;;;;5091481;28;20460;-71
2021/07/28 00:07:01;;;;;;;7.70;6.90;;;19.90;99.90;;;;;;5095621;28;20842;-71
2021/07/28 00:09:27;;;;;;;8.23;7.53;;;19.90;99.90;;;;;;5104772;28;20552;-71
2021/07/28 00:11:53;;;;;;;7.57;6.90;;;19.80;99.90;;;;;;5097709;28;20500;-70
2021/07/28 00:14:18;;;;;;;7.80;7.30;;;19.90;99.90;;;;;;5098481;28;20184;-71
2021/07/28 00:16:44;;;;;;;7.40;6.90;;;19.80;99.90;;;;;;5096316;28;20414;-69
2021/07/28 00:19:19;;;;;;;7.63;7.03;;;19.80;99.90;;;;;;5094533;28;20629;-70
2021/07/28 00:24:32;;;;;;;7.93;7.33;;;19.70;99.90;;;;;;5094865;28;20413;-71
2021/07/28 00:26:59;;;;;;;6.97;6.47;;;19.70;99.90;;;;;;5095659;28;20434;-71
2021/07/28 00:29:28;;;;;;;6.63;6.03;;;19.70;99.90;;;;;;5093211;28;20499;-71
2021/07/28 00:31:55;;;;;;;7.40;6.90;;;19.70;99.90;;;;;;5095696;28;20461;-69
2021/07/28 00:34:21;;;;;;;6.67;6.17;;;19.70;99.90;;;;;;5110859;28;20851;-71
2021/07/28 00:36:47;;;;;;;7.50;6.80;;;19.80;99.90;;;;;;5093981;28;20461;-71
2021/07/28 00:39:13;;;;;;;7.70;7.10;;;19.80;99.90;;;;;;5095273;28;20418;-75
2021/07/28 00:41:44;;;;;;;7.43;6.83;;;19.80;99.90;;;;;;5094332;28;20414;-71
2021/07/28 00:44:11;;;;;;;7.50;7.00;;;19.80;99.90;;;;;;5094377;28;20228;-71
2021/07/28 00:46:37;;;;;;;7.50;6.80;;;19.90;99.90;;;;;;5094720;28;20433;-70
2021/07/28 00:49:04;;;;;;;7.37;6.77;;;19.90;99.90;;;;;;5106923;28;20438;-71
2021/07/28 00:51:30;;;;;;;7.87;7.27;;;19.90;99.90;;;;;;5094294;28;20406;-71
2021/07/28 00:53:57;;;;;;;9.43;8.63;;;19.90;99.90;;;;;;5093549;28;20414;-71
2021/07/28 00:56:22;;;;;;;8.50;7.90;;;19.90;99.90;;;;;;5093711;28;20444;-71
2021/07/28 00:58:48;;;;;;;8.47;7.87;;;19.90;99.90;;;;;;5094797;28;20426;-71
2021/07/28 01:01:15;;;;;;;7.90;7.30;;;19.90;99.90;;;;;;5094154;28;20418;-75
2021/07/28 01:03:42;;;;;;;7.87;7.37;;;19.90;99.90;;;;;;5095177;28;20208;-71
2021/07/28 01:06:09;;;;;;;8.63;7.93;;;19.90;99.90;;;;;;5094296;28;20465;-74
2021/07/28 01:08:35;;;;;;;8.67;7.03;;;19.90;99.90;;;;;;5094316;28;20449;-71
2021/07/28 01:11:06;;;;;;;7.40;6.80;;;19.90;99.90;;;;;;5094937;28;20471;-72
2021/07/28 01:13:34;;;;;;;7.90;7.30;;;19.90;99.90;;;;;;5093190;28;20484;-72
2021/07/28 01:16:10;;;;;;;8.27;7.30;;;19.90;99.90;;;;;;5125382;27;20426;-72
2021/07/28 01:18:37;;;;;;;7.67;6.93;;;19.90;99.90;;;;;;5106577;28;20508;-70
2021/07/28 01:21:06;;;;;;;7.90;7.27;;;19.90;99.90;;;;;;5114960;28;20418;-71
2021/07/28 01:23:32;;;;;;;8.13;7.33;;;19.90;99.90;;;;;;5112927;28;20440;-71
2021/07/28 01:26:03;;;;;;;8.37;7.67;;;20.00;99.90;;;;;;5094419;28;20980;-71
2021/07/28 01:28:30;;;;;;;7.60;7.00;;;20.00;99.90;;;;;;5093442;28;20208;-71
2021/07/28 01:31:07;;;;;;;7.77;7.13;;;20.00;99.90;;;;;;5094710;28;20421;-70
2021/07/28 01:33:35;;;;;;;7.70;7.00;;;20.00;99.90;;;;;;5102709;28;20478;-71
2021/07/28 01:36:05;;;;;;;7.50;6.80;;;20.00;99.90;;;;;;5114426;28;20457;-71
2021/07/28 01:38:32;;;;;;;7.47;6.90;;;20.00;99.90;;;;;;5113812;27;20401;-71
2021/07/28 01:41:00;;;;;;;8.20;7.60;;;20.00;99.90;;;;;;5103668;28;20793;-71
2021/07/28 01:43:27;;;;;;;7.80;7.03;;;19.90;99.90;;;;;;5104556;28;20780;-71
2021/07/28 01:45:54;;;;;;;7.97;7.37;;;19.90;99.90;;;;;;5093361;28;20477;-71
2021/07/28 01:48:20;;;;;;;8.30;7.60;;;19.90;99.90;;;;;;5094065;28;20507;-70
2021/07/28 01:50:46;;;;;;;9.80;7.10;;;19.90;99.90;;;;;;5093821;28;20411;-72
2021/07/28 01:53:12;;;;;;;6.97;6.37;;;20.00;99.90;;;;;;5093981;28;20421;-71
2021/07/28 01:55:38;;;;;;;7.70;7.10;;;19.90;99.90;;;;;;5095859;28;20451;-73
2021/07/28 01:58:04;;;;;;;7.87;7.17;;;19.80;99.90;;;;;;5101586;28;20406;-73
2021/07/28 02:00:30;;;;;;;10.90;8.37;;;19.60;99.90;;;;;;5101109;28;20172;-73
2021/07/28 02:03:04;;;;;;;8.50;7.73;;;19.60;99.90;;;;;;5101098;28;20449;-72
2021/07/28 02:05:30;;;;;;;8.10;7.50;;;19.60;99.90;;;;;;5101756;28;20171;-72
2021/07/28 02:08:04;;;;;;;8.30;7.40;;;19.60;99.90;;;;;;5103193;28;20502;-73
2021/07/28 02:10:50;;;;;;;8.70;7.80;;;19.60;99.90;;;;;;5095171;28;20407;-71
2021/07/28 02:13:19;;;;;;;8.57;7.97;;;19.50;99.90;;;;;;5097099;28;20424;-76
2021/07/28 02:15:45;;;;;;;9.20;8.50;;;19.50;99.90;;;;;;5111153;28;20830;-72
2021/07/28 02:18:12;;;;;;;9.50;8.70;;;19.50;99.90;;;;;;5093223;28;20422;-71
2021/07/28 02:20:38;;;;;;;10.07;9.30;;;19.40;99.90;;;;;;5092394;28;20902;-71
2021/07/28 02:23:04;;;;;;;9.70;9.00;;;19.40;99.90;;;;;;5075328;28;20929;-71
2021/07/28 02:25:30;;;;;;;10.27;9.40;;;19.50;99.90;;;;;;5092555;28;20421;-71
2021/07/28 02:27:56;;;;;;;10.30;9.47;;;19.50;99.90;;;;;;5091599;28;20484;-71
2021/07/28 02:30:23;;;;;;;9.30;8.60;;;19.50;99.90;;;;;;5091301;28;20438;-72
2021/07/28 02:32:49;;;;;;;10.90;9.90;;;19.50;99.90;;;;;;5093474;28;20418;-71
2021/07/28 02:35:16;;;;;;;10.70;9.90;;;19.50;99.90;;;;;;5111619;28;20763;-73
2021/07/28 02:37:43;;;;;;;9.77;8.87;;;19.50;99.90;;;;;;5093813;28;20430;-71
2021/07/28 02:40:14;;;;;;;10.10;9.40;;;19.50;99.90;;;;;;5093090;28;20398;-71
2021/07/28 02:42:40;;;;;;;10.57;9.77;;;19.40;99.90;;;;;;5092362;28;20422;-72
2021/07/28 02:45:06;;;;;;;8.77;8.17;;;19.50;99.90;;;;;;5092715;28;21019;-73
2021/07/28 02:47:32;;;;;;;9.80;8.97;;;19.40;99.90;;;;;;5092106;28;20966;-72
2021/07/28 02:49:58;;;;;;;9.30;8.50;;;19.50;99.90;;;;;;5104327;28;20472;-73
2021/07/28 02:52:23;;;;;;;8.70;8.00;;;19.50;99.90;;;;;;5091753;28;20671;-72
2021/07/28 02:54:49;;;;;;;9.10;8.30;;;19.50;99.90;;;;;;5091146;28;20693;-72
2021/07/28 02:57:15;;;;;;;9.37;8.57;;;19.50;99.90;;;;;;5091647;28;20169;-71
2021/07/28 02:59:40;;;;;;;9.43;8.57;;;19.40;99.90;;;;;;5091963;28;20173;-71
2021/07/28 03:02:06;;;;;;;10.00;9.20;;;19.40;99.90;;;;;;5092390;28;20519;-71
2021/07/28 03:04:32;;;;;;;10.70;9.50;;;19.30;99.90;;;;;;5091633;28;20207;-71
2021/07/28 03:06:57;;;;;;;10.00;9.30;;;19.30;99.90;;;;;;5092619;28;20608;-71
2021/07/28 03:09:23;;;;;;;10.70;9.80;;;19.10;99.90;;;;;;5090565;28;20196;-72
2021/07/28 03:11:49;;;;;;;10.37;9.43;;;18.90;99.90;;;;;;5092582;28;20643;-71
2021/07/28 03:14:14;;;;;;;10.17;9.27;;;18.90;99.90;;;;;;5092379;28;20351;-72
2021/07/28 03:16:40;;;;;;;10.40;9.60;;;18.90;99.90;;;;;;5091662;28;20179;-71
2021/07/28 03:19:06;;;;;;;10.03;9.23;;;18.90;99.90;;;;;;5092234;28;20192;-71
2021/07/28 03:21:33;;;;;;;11.40;10.50;;;18.70;99.90;;;;;;5092010;28;20172;-72
2021/07/28 03:23:59;;;;;;;11.17;10.27;;;18.70;99.90;;;;;;5092205;28;20246;-71
2021/07/28 03:26:25;;;;;;;11.60;10.60;;;18.50;99.90;;;;;;5091447;28;20423;-72
2021/07/28 03:28:50;;;;;;;10.60;9.70;;;18.50;99.90;;;;;;5091856;28;20956;-72
2021/07/28 03:31:16;;;;;;;11.13;10.27;;;18.60;99.90;;;;;;5092139;28;20168;-71
2021/07/28 03:33:42;;;;;;;9.93;9.03;;;18.70;99.90;;;;;;5091540;28;20168;-71
2021/07/28 03:36:08;;;;;;;9.67;8.77;;;18.70;99.90;;;;;;5092133;28;20436;-71
2021/07/28 03:38:33;;;;;;;10.67;9.83;;;18.80;99.90;;;;;;5090148;28;20202;-72
2021/07/28 03:40:59;;;;;;;10.40;9.63;;;18.70;99.90;;;;;;5095736;28;20639;-71
2021/07/28 03:43:25;;;;;;;9.33;8.63;;;18.70;99.90;;;;;;5095088;28;20628;-72
2021/07/28 03:45:51;;;;;;;11.20;10.30;;;18.80;99.90;;;;;;5096606;28;20220;-72
2021/07/28 03:48:16;;;;;;;15.83;9.80;;;18.90;99.90;;;;;;5128689;27;20215;-71
2021/07/28 03:50:42;;;;;;;10.90;10.00;;;18.90;99.90;;;;;;5094271;28;20176;-71
2021/07/28 03:53:08;;;;;;;10.10;9.27;;;18.90;99.90;;;;;;5096298;28;20191;-71
2021/07/28 03:55:34;;;;;;;10.20;9.30;;;18.90;99.90;;;;;;5094914;28;20169;-71
2021/07/28 03:58:00;;;;;;;10.53;9.57;;;18.90;99.90;;;;;;5096110;28;20442;-71
2021/07/28 04:00:26;;;;;;;10.50;9.03;;;18.90;99.90;;;;;;5095362;28;20446;-72
2021/07/28 04:02:52;;;;;;;9.53;8.63;;;19.00;99.90;;;;;;5096188;28;20176;-71
2021/07/28 04:05:18;;;;;;;9.93;9.03;;;19.10;99.90;;;;;;5096107;28;20612;-71
2021/07/28 04:07:45;;;;;;;9.83;9.03;;;19.10;99.90;;;;;;5095233;28;20179;-71
2021/07/28 04:10:11;;;;;;;11.63;10.43;;;19.10;99.90;;;;;;5095458;28;20267;-71
2021/07/28 04:12:37;;;;;;;11.07;10.23;;;19.10;99.90;;;;;;5094210;28;20436;-72
2021/07/28 04:15:04;;;;;;;9.77;9.07;;;19.00;99.90;;;;;;5094602;28;20422;-71
2021/07/28 04:17:30;;;;;;;10.53;9.40;;;19.10;99.90;;;;;;5094270;28;20187;-72
2021/07/28 04:19:55;;;;;;;10.97;10.07;;;19.10;99.90;;;;;;5095342;28;20434;-71
2021/07/28 04:22:22;;;;;;;10.53;9.50;;;19.20;99.90;;;;;;5095058;28;20517;-77
2021/07/28 04:24:48;;;;;;;11.20;10.23;;;19.20;99.90;;;;;;5095057;28;20175;-71
2021/07/28 04:27:14;;;;;;;11.00;10.10;;;19.30;99.90;;;;;;5095851;28;20402;-72
2021/07/28 04:29:40;;;;;;;10.07;9.30;;;19.30;99.90;;;;;;5094689;28;20462;-72
2021/07/28 04:32:07;;;;;;;13.07;12.17;;;19.30;99.90;;;;;;5095330;28;20422;-71
2021/07/28 04:34:36;;;;;;;10.27;9.33;;;19.30;99.90;;;;;;5094756;28;20420;-71
2021/07/28 04:37:02;;;;;;;9.90;9.10;;;19.40;99.90;;;;;;5095247;28;20413;-71
2021/07/28 04:39:28;;;;;;;12.10;11.17;;;19.30;99.90;;;;;;5094211;28;20463;-72
2021/07/28 04:41:54;;;;;;;12.40;11.40;;;19.20;99.90;;;;;;5095143;28;20430;-71
2021/07/28 04:44:20;;;;;;;12.27;11.17;;;19.20;99.90;;;;;;5094969;28;20948;-71
2021/07/28 04:46:45;;;;;;;12.53;11.53;;;19.20;99.90;;;;;;5094408;28;20833;-72
2021/07/28 04:49:11;;;;;;;10.57;9.57;;;19.20;99.90;;;;;;5093573;28;20719;-71
2021/07/28 04:51:37;;;;;;;10.90;9.83;;;19.10;99.90;;;;;;5092713;28;20547;-71
2021/07/28 04:54:03;;;;;;;10.27;9.27;;;19.10;99.90;;;;;;5095240;28;20195;-71
2021/07/28 04:56:28;;;;;;;10.23;9.33;;;19.10;99.90;;;;;;5094329;28;20164;-72
2021/07/28 04:58:54;;;;;;;11.03;10.10;;;19.10;99.90;;;;;;5093872;28;20176;-71
2021/07/28 05:01:20;;;;;;;11.30;10.30;;;19.10;99.90;;;;;;5094409;28;20176;-71
2021/07/28 05:03:45;;;;;;;11.07;10.17;;;19.10;99.90;;;;;;5092880;28;20172;-72
2021/07/28 05:06:11;;;;;;;11.00;10.00;;;19.20;99.90;;;;;;5094539;28;20287;-72
2021/07/28 05:08:37;;;;;;;10.40;9.23;;;19.20;99.90;;;;;;5094070;28;20196;-71
2021/07/28 05:11:02;;;;;;;11.83;10.93;;;19.20;99.90;;;;;;5094637;28;20184;-71
2021/07/28 05:13:29;;;;;;;10.80;10.00;;;19.30;99.90;;;;;;5093585;28;20172;-76
2021/07/28 05:15:55;;;;;;;13.10;10.50;;;19.30;99.90;;;;;;5095001;28;20538;-71
2021/07/28 05:18:21;;;;;;;11.17;10.27;;;19.30;99.90;;;;;;5093986;28;20513;-71
2021/07/28 05:20:47;;;;;;;10.93;10.00;;;19.30;99.90;;;;;;5093866;28;20487;-71
2021/07/28 05:23:14;;;;;;;11.43;10.27;;;19.40;99.90;;;;;;5093557;28;20437;-71
2021/07/28 05:25:40;;;;;;;10.33;9.23;;;19.50;99.90;;;;;;5093786;28;20505;-72
2021/07/28 05:28:06;;;;;;;12.83;11.83;;;19.50;99.90;;;;;;5094484;28;20470;-71
2021/07/28 05:30:32;;;;;;;9.60;8.80;;;19.50;99.90;;;;;;5092103;28;20430;-71
2021/07/28 05:32:58;;;;;;;9.90;9.00;;;19.50;99.90;;;;;;5103008;28;20513;-71
2021/07/28 05:35:24;;;;;;;9.33;8.63;;;19.60;99.90;;;;;;5093745;28;20521;-72
2021/07/28 05:38:00;;;;;;;14.53;13.53;;;19.70;99.90;;;;;;5092783;28;20218;-71
2021/07/28 05:40:26;;;;;;;11.10;10.20;;;19.80;99.90;;;;;;5094286;28;20171;-70
2021/07/28 05:42:52;;;;;;;13.07;11.97;;;19.80;99.90;;;;;;5093154;28;20423;-72
2021/07/28 05:45:17;;;;;;;11.03;10.13;;;19.90;99.90;;;;;;5093826;28;21064;-73
2021/07/28 05:47:45;;;;;;;9.80;8.80;;;20.00;99.90;;;;;;5092390;28;20415;-72
2021/07/28 05:50:15;;;;;;;10.17;9.27;;;20.10;99.90;;;;;;5093981;28;20418;-72
2021/07/28 05:52:41;;;;;;;10.03;9.23;;;20.10;99.90;;;;;;5092818;28;20398;-72
2021/07/28 05:55:08;;;;;;;11.73;10.93;;;20.10;99.90;;;;;;5093983;28;20418;-72
2021/07/28 05:57:33;;;;;;;10.83;9.67;;;20.10;99.90;;;;;;5092499;28;20426;-72
2021/07/28 05:59:59;;;;;;;10.10;9.30;;;20.10;99.90;;;;;;5093779;28;20782;-72
2021/07/28 06:02:25;;;;;;;13.33;11.97;;;20.20;99.90;;;;;;5091229;28;20177;-70
2021/07/28 06:04:50;;;;;;;12.77;11.90;;;20.30;99.90;;;;;;5091861;28;21122;-73
2021/07/28 06:07:16;;;;;;;10.17;9.27;;;20.30;99.90;;;;;;5093368;28;20628;-71
2021/07/28 06:09:42;;;;;;;9.30;8.60;;;20.30;99.90;;;;;;5092740;28;20206;-72
2021/07/28 06:12:10;;;;;;;11.53;10.40;;;20.40;99.90;;;;;;5100312;28;20168;-72
2021/07/28 06:14:36;;;;;;;10.17;9.40;;;20.40;99.90;;;;;;5112362;28;20191;-73
2021/07/28 06:17:02;;;;;;;10.30;9.60;;;20.50;99.90;;;;;;5093518;28;20917;-72
2021/07/28 06:19:27;;;;;;;10.23;9.50;;;20.60;99.90;;;;;;5113352;28;20186;-75
2021/07/28 06:21:53;;;;;;;9.20;8.40;;;20.70;99.90;;;;;;5092965;28;20521;-72
2021/07/28 06:24:19;;;;;;;10.37;9.40;;;20.70;99.90;;;;;;5093439;28;20611;-72
2021/07/28 06:26:45;;;;;;;10.47;9.57;;;20.80;99.90;;;;;;5091227;28;20230;-72
2021/07/28 06:29:10;;;;;;;11.13;10.33;;;20.80;99.90;;;;;;5093262;28;20678;-72
2021/07/28 06:31:36;;;;;;;12.60;11.60;;;20.80;99.90;;;;;;5092490;28;20616;-72
2021/07/28 06:34:02;;;;;;;10.73;9.83;;;20.80;99.90;;;;;;5091679;28;20221;-72
2021/07/28 06:36:28;;;;;;;9.77;8.87;;;20.90;99.90;;;;;;5093125;28;20233;-71
2021/07/28 06:38:53;;;;;;;9.60;8.80;;;20.90;99.90;;;;;;5091829;28;20234;-72
2021/07/28 06:41:19;;;;;;;10.23;9.43;;;20.90;99.90;;;;;;5092530;28;20263;-70
2021/07/28 06:43:45;;;;;;;9.33;8.53;;;20.80;99.90;;;;;;5092020;28;20173;-70
2021/07/28 06:46:10;;;;;;;9.63;9.03;;;20.60;99.90;;;;;;5093156;28;20183;-70
2021/07/28 06:48:36;;;;;;;9.60;8.83;;;20.50;99.90;;;;;;5090459;28;20216;-70
2021/07/28 06:51:03;;;;;;;9.17;8.37;;;20.40;99.90;;;;;;5092914;28;20262;-70
2021/07/28 06:53:29;;;;;;;8.93;8.33;;;20.40;99.90;;;;;;5092754;28;20470;-70
2021/07/28 06:55:54;;;;;;;8.13;7.53;;;20.40;99.90;;;;;;5091795;28;20233;-70
2021/07/28 06:58:20;;;;;;;8.57;7.87;;;20.50;99.90;;;;;;5092778;28;20636;-70
2021/07/28 07:00:46;;;;;;;8.90;8.20;;;20.50;99.90;;;;;;5091982;28;20271;-70
2021/07/28 07:03:12;;;;;;;9.00;8.30;;;20.60;99.90;;;;;;5092752;28;20647;-70
2021/07/28 07:05:38;;;;;;;8.80;8.10;;;20.50;99.90;;;;;;5091522;28;20415;-70
2021/07/28 07:08:04;;;;;;;8.67;8.07;;;20.30;99.90;;;;;;5090981;28;20180;-69
2021/07/28 07:10:29;;;;;;;8.17;7.57;;;20.20;99.90;;;;;;5092651;28;20263;-70
2021/07/28 07:12:55;;;;;;;8.20;7.43;;;20.10;99.90;;;;;;5091993;28;20834;-70
2021/07/28 07:15:21;;;;;;;10.80;10.10;;;20.00;99.90;;;;;;5092530;28;20230;-69
2021/07/28 07:17:46;;;;;;;10.30;9.43;;;19.90;99.90;;;;;;5091471;28;20199;-71
2021/07/28 07:20:13;;;;;;;8.97;8.27;;;20.00;99.90;;;;;;5092227;28;20251;-71
2021/07/28 07:22:38;;;;;;;8.77;8.13;;;20.00;99.90;;;;;;5090560;28;20172;-71
2021/07/28 07:25:06;;;;;;;8.47;7.77;;;20.10;99.90;;;;;;5092372;28;20395;-71
2021/07/28 07:27:31;;;;;;;7.97;7.40;;;20.00;99.90;;;;;;5092176;28;20183;-71
2021/07/28 07:29:57;;;;;;;7.90;7.30;;;19.90;99.90;;;;;;5091930;28;20454;-70
2021/07/28 07:32:24;;;;;;;8.30;7.60;;;19.80;99.90;;;;;;5091471;28;20176;-71
2021/07/28 07:34:50;;;;;;;8.07;7.23;;;19.80;99.90;;;;;;5091162;28;20172;-71
2021/07/28 07:37:16;;;;;;;7.93;7.23;;;19.90;99.90;;;;;;5091936;28;20497;-72
2021/07/28 07:39:42;;;;;;;8.20;7.50;;;20.00;99.90;;;;;;5091312;28;20406;-72
2021/07/28 07:42:08;;;;;;;8.67;6.80;;;19.90;99.90;;;;;;5092150;28;20422;-71
2021/07/28 07:44:33;;;;;;;9.40;8.60;;;19.90;99.90;;;;;;5090462;28;20247;-75
2021/07/28 07:46:59;;;;;;;9.00;8.30;;;19.90;99.90;;;;;;5090561;28;20633;-71
2021/07/28 07:49:25;;;;;;;8.40;7.60;;;19.90;99.90;;;;;;5092098;28;20715;-74
2021/07/28 07:51:51;;;;;;;8.90;8.20;;;19.90;99.90;;;;;;5095538;28;20226;-72
2021/07/28 07:54:16;;;;;;;7.50;7.00;;;19.90;99.90;;;;;;5091852;28;20176;-72
2021/07/28 07:56:42;;;;;;;7.93;7.00;;;20.00;99.90;;;;;;5089664;28;20217;-72
2021/07/28 07:59:08;;;;;;;8.40;7.80;;;20.20;99.90;;;;;;5091791;28;20187;-72
2021/07/28 08:01:33;;;;;;;8.03;7.37;;;20.30;99.90;;;;;;5091673;28;20229;-74
2021/07/28 08:03:59;;;;;;;8.17;7.47;;;20.30;99.90;;;;;;5091404;28;20195;-72
2021/07/28 08:06:25;;;;;;;9.27;8.40;;;20.30;99.90;;;;;;5091547;28;20200;-72
2021/07/28 08:08:50;;;;;;;8.00;7.40;;;20.40;99.90;;;;;;5090811;28;20203;-72
2021/07/28 08:11:16;;;;;;;8.67;7.97;;;20.60;99.90;;;;;;5091966;28;20172;-72
2021/07/28 08:13:43;;;;;;;8.07;7.47;;;20.70;99.90;;;;;;5090736;28;20168;-72
2021/07/28 08:16:16;;;;;;;8.30;7.70;;;20.90;99.90;;;;;;5092002;28;20414;-72
2021/07/28 08:18:42;;;;;;;7.80;7.00;;;20.90;99.90;;;;;;5091071;28;20487;-70
2021/07/28 08:21:09;;;;;;;8.63;8.03;;;21.00;99.90;;;;;;5091408;28;21017;-71
2021/07/28 08:23:36;;;;;;;8.53;7.77;;;21.10;99.90;;;;;;5094485;28;20415;-71
2021/07/28 08:26:02;;;;;;;8.30;7.60;;;21.20;99.90;;;;;;5093937;28;20409;-70
2021/07/28 08:28:28;;;;;;;8.30;7.63;;;21.20;99.90;;;;;;5095951;28;20811;-71
2021/07/28 08:30:55;;;;;;;7.77;7.17;;;21.20;99.90;;;;;;5095459;28;20411;-70
2021/07/28 08:33:28;;;;;;;8.00;7.50;;;21.20;99.90;;;;;;5096088;28;20172;-71
2021/07/28 08:35:55;;;;;;;7.87;7.27;;;21.20;99.90;;;;;;5095153;28;20395;-70
2021/07/28 08:38:21;;;;;;;8.40;7.70;;;21.20;99.90;;;;;;5095872;28;20413;-70
2021/07/28 08:40:50;;;;;;;7.63;6.93;;;21.20;99.90;;;;;;5094059;28;20414;-70
2021/07/28 08:43:20;;;;;;;9.80;8.87;;;21.20;99.90;;;;;;5095751;28;20415;-70
2021/07/28 08:45:47;;;;;;;8.20;7.50;;;21.10;99.90;;;;;;5095683;28;20445;-71
2021/07/28 08:48:16;;;;;;;9.47;8.77;;;21.10;99.90;;;;;;5090337;28;20464;-71
2021/07/28 08:50:46;;;;;;;7.67;7.00;;;21.10;99.90;;;;;;5104120;28;20419;-71
2021/07/28 08:53:11;;;;;;;8.63;8.03;;;20.90;99.90;;;;;;5095713;28;20897;-71
2021/07/28 08:55:39;;;;;;;7.73;7.10;;;21.00;99.90;;;;;;5111874;28;20416;-74
2021/07/28 08:58:08;;;;;;;8.37;7.67;;;21.00;99.90;;;;;;5095646;28;20184;-71
2021/07/28 09:00:42;;;;;;;9.13;8.33;;;21.10;99.90;;;;;;5095596;28;20771;-71
2021/07/28 09:03:08;;;;;;;7.40;6.80;;;21.00;99.90;;;;;;5095151;28;20429;-71
2021/07/28 09:05:41;;;;;;;10.97;10.27;;;20.90;99.90;;;;;;5094076;28;20399;-71
2021/07/28 09:08:31;;;;;;;8.30;7.70;;;21.00;99.90;;;;;;5095055;28;20180;-71
2021/07/28 09:11:06;;;;;;;7.80;7.10;;;21.00;99.90;;;;;;5094903;28;20430;-71
2021/07/28 09:13:41;;;;;;;9.80;9.00;;;21.00;99.90;;;;;;5095154;28;20426;-72
2021/07/28 09:16:12;;;;;;;7.50;6.80;;;20.90;99.90;;;;;;5077153;28;20782;-71
2021/07/28 09:18:45;;;;;;;6.30;5.53;;;20.70;99.90;;;;;;5094254;28;20422;-77
2021/07/28 09:21:19;;;;;;;5.87;5.43;;;20.60;99.90;;;;;;5094978;28;20438;-71
2021/07/28 09:24:00;;;;;;;5.27;4.87;;;20.50;99.90;;;;;;5094214;28;20567;-75
2021/07/28 09:26:31;;;;;;;5.50;5.20;;;20.50;99.90;;;;;;5094989;28;20478;-71
2021/07/28 09:29:07;;;;;;;5.50;5.10;;;20.60;99.90;;;;;;5093246;28;20457;-72
2021/07/28 09:31:41;;;;;;;5.17;4.77;;;20.60;99.90;;;;;;5094806;28;20403;-71
2021/07/28 09:34:10;;;;;;;5.13;4.83;;;20.60;99.90;;;;;;5094375;28;20867;-72
2021/07/28 09:36:36;;;;;;;6.40;6.00;;;20.70;99.90;;;;;;5093655;28;20445;-71
2021/07/28 09:39:04;;;;;;;5.90;5.47;;;20.60;99.90;;;;;;5126351;27;20513;-72
2021/07/28 09:41:30;;;;;;;6.00;5.47;;;20.50;99.90;;;;;;5093417;28;20402;-71
2021/07/28 09:44:00;;;;;;;6.57;6.17;;;20.50;99.90;;;;;;5093377;28;20418;-72
2021/07/28 09:46:39;;;;;;;5.43;4.97;;;20.60;99.90;;;;;;5094248;28;20173;-71
2021/07/28 09:49:06;;;;;;;5.70;5.30;;;20.60;99.90;;;;;;5093867;28;20836;-72
2021/07/28 09:51:37;;;;;;;5.43;5.13;;;20.60;99.90;;;;;;5094367;28;20461;-72
2021/07/28 09:54:08;;;;;;;6.47;5.97;;;20.70;99.90;;;;;;5093665;28;20405;-72
2021/07/28 09:56:40;;;;;;;5.53;5.13;;;20.70;99.90;;;;;;5094255;28;21012;-71
2021/07/28 09:59:06;;;;;;;6.47;5.87;;;20.80;99.90;;;;;;5094201;28;20411;-72
2021/07/28 10:01:33;;;;;;;6.30;5.80;;;20.80;99.90;;;;;;5092989;28;20394;-72
2021/07/28 10:04:00;;;;;;;6.30;5.70;;;20.90;99.90;;;;;;5093278;28;20411;-72
2021/07/28 10:06:38;;;;;;;6.63;6.07;;;21.00;99.90;;;;;;5094179;28;20438;-71
2021/07/28 10:09:09;;;;;;;8.63;8.03;;;21.10;99.90;;;;;;5093178;28;20446;-71
2021/07/28 10:11:40;;;;;;;6.20;5.80;;;21.30;99.90;;;;;;5094109;28;20399;-72
2021/07/28 10:14:08;;;;;;;7.93;7.43;;;21.50;99.90;;;;;;5093310;28;20423;-72
2021/07/28 10:16:34;;;;;;;7.40;7.00;;;21.70;99.90;;;;;;5093728;28;20406;-72
2021/07/28 10:19:03;;;;;;;7.70;7.20;;;22.00;99.90;;;;;;5091816;28;20407;-72
2021/07/28 10:21:32;;;;;;;7.67;7.10;;;22.20;99.90;;;;;;5093847;28;20422;-72
2021/07/28 10:23:58;;;;;;;8.03;7.23;;;22.40;99.90;;;;;;5093086;28;20412;-72
2021/07/28 10:26:25;;;;;;;9.43;8.70;;;22.60;99.90;;;;;;5092817;28;20414;-72
2021/07/28 10:28:51;;;;;;;12.17;11.40;;;22.60;99.90;;;;;;5092977;28;20488;-72
2021/07/28 10:31:18;;;;;;;12.17;11.27;;;22.70;99.90;;;;;;5093205;28;20410;-72
2021/07/28 10:33:52;;;;;;;12.37;11.67;;;22.90;99.90;;;;;;5092972;28;20172;-72
2021/07/28 10:36:19;;;;;;;10.70;10.00;;;23.10;99.90;;;;;;5093299;28;20760;-72
2021/07/28 10:38:58;;;;;;;10.27;9.47;;;23.30;99.90;;;;;;5091825;28;20411;-72
2021/07/28 10:41:46;;;;;;;11.33;10.53;;;23.40;99.90;;;;;;5093456;28;20409;-72
2021/07/28 10:44:14;;;;;;;12.03;11.00;;;23.50;99.90;;;;;;5093121;28;20926;-72
2021/07/28 10:46:57;;;;;;;10.67;9.93;;;23.50;99.90;;;;;;5093393;28;20407;-72
2021/07/28 10:49:35;;;;;;;9.87;9.10;;;23.60;99.90;;;;;;5092457;28;20502;-72
2021/07/28 10:52:13;;;;;;;9.87;9.17;;;23.80;99.90;;;;;;5092538;28;20422;-72
2021/07/28 10:54:49;;;;;;;9.37;8.60;;;23.90;99.90;;;;;;5093357;28;20754;-72
2021/07/28 10:57:37;;;;;;;8.97;8.23;;;23.90;99.90;;;;;;5093271;28;20406;-72
2021/07/28 11:00:11;;;;;;;10.03;9.23;;;24.00;99.70;;;;;;5092474;28;20425;-72
2021/07/28 11:02:54;;;;;;;9.53;8.93;;;24.10;99.30;;;;;;5093134;28;20386;-72
2021/07/28 11:05:22;;;;;;;8.20;7.60;;;24.10;99.40;;;;;;5099994;28;20955;-72
2021/07/28 11:08:02;;;;;;;7.40;6.90;;;23.90;97.20;;;;;;5112671;28;20412;-72
2021/07/28 11:10:50;;;;;;;7.87;7.30;;;23.80;97.90;;;;;;5113415;28;20438;-72
2021/07/28 11:13:20;;;;;;;8.43;7.80;;;24.00;98.70;;;;;;5113237;28;20408;-72
2021/07/28 11:15:54;;;;;;;8.00;7.40;;;24.10;99.60;;;;;;5112883;28;20825;-72
2021/07/28 11:18:41;;;;;;;6.77;6.37;;;24.20;97.20;;;;;;5107259;28;20943;-72
2021/07/28 11:21:14;;;;;;;7.47;7.00;;;24.10;95.80;;;;;;5092470;28;20501;-72
2021/07/28 11:23:41;;;;;;;6.80;6.30;;;24.00;95.60;;;;;;5092828;28;20402;-71
2021/07/28 11:26:20;;;;;;;5.90;5.60;;;24.00;95.50;;;;;;5101631;28;20501;-72
2021/07/28 11:28:47;;;;;;;6.70;6.10;;;23.90;96.30;;;;;;5096040;28;20457;-72
2021/07/28 11:31:14;;;;;;;6.37;5.97;;;24.00;95.80;;;;;;5092704;28;20403;-72
2021/07/28 11:33:41;;;;;;;6.40;5.90;;;24.10;95.70;;;;;;5092715;28;20986;-71
2021/07/28 11:36:07;;;;;;;5.80;5.40;;;24.30;94.90;;;;;;5091992;28;20444;-72
2021/07/28 11:38:38;;;;;;;6.60;6.20;;;24.40;97.10;;;;;;5104324;28;20401;-72
2021/07/28 11:41:10;;;;;;;6.70;6.13;;;24.60;95.20;;;;;;5111915;28;20484;-72
2021/07/28 11:43:40;;;;;;;5.40;4.90;;;24.80;95.60;;;;;;5112335;28;20401;-72
2021/07/28 11:46:16;;;;;;;5.60;5.30;;;24.90;92.90;;;;;;5111753;28;20440;-72
2021/07/28 11:48:46;;;;;;;6.70;6.10;;;25.00;93.30;;;;;;5103644;28;20457;-73
2021/07/28 11:51:25;;;;;;;7.27;6.57;;;25.10;92.10;;;;;;5091966;28;20406;-72
2021/07/28 11:53:50;;;;;;;8.83;8.10;;;25.30;93.30;;;;;;5091311;28;20394;-73
2021/07/28 11:56:17;;;;;;;7.67;6.13;;;25.50;92.10;;;;;;5091918;28;20540;-72
2021/07/28 11:58:48;;;;;;;27.30;10.57;;;25.50;90.40;;;;;;5092051;28;20176;-72
2021/07/28 12:01:21;;;;;;;27.33;12.17;;;25.40;90.60;;;;;;5094224;28;20438;-72
2021/07/28 12:03:49;;;;;;;6.87;6.27;;;25.30;91.70;;;;;;5095642;28;20414;-73
2021/07/28 12:06:15;;;;;;;8.30;7.50;;;25.30;89.70;;;;;;5096146;28;20461;-72
2021/07/28 12:08:41;;;;;;;11.87;6.80;;;25.20;90.30;;;;;;5096068;28;20453;-70
2021/07/28 12:11:09;;;;;;;8.70;7.90;;;25.20;90.00;;;;;;5095775;28;20398;-70
2021/07/28 12:13:46;;;;;;;6.70;6.30;;;25.10;89.60;;;;;;5096308;28;20623;-72
2021/07/28 12:16:12;;;;;;;13.40;12.10;;;24.90;89.00;;;;;;5096395;28;20430;-72
2021/07/28 12:18:46;;;;;;;6.90;6.30;;;24.80;90.00;;;;;;5095773;28;20503;-72
2021/07/28 12:21:13;;;;;;;8.80;8.00;;;24.60;91.30;;;;;;5096132;28;20462;-72
2021/07/28 12:23:51;;;;;;;6.50;5.93;;;24.60;91.10;;;;;;5096151;28;20841;-72
2021/07/28 12:26:37;;;;;;;5.90;5.50;;;24.60;91.90;;;;;;5096033;28;20742;-72
2021/07/28 12:29:03;;;;;;;7.03;6.63;;;24.80;92.50;;;;;;5094799;28;20465;-72
2021/07/28 12:31:29;;;;;;;6.40;6.07;;;25.00;93.60;;;;;;5095995;28;20413;-72
2021/07/28 12:34:15;;;;;;;5.90;5.50;;;25.10;91.60;;;;;;5095312;28;20179;-72
2021/07/28 12:36:41;;;;;;;5.77;5.20;;;25.10;90.60;;;;;;5095860;28;20425;-71
2021/07/28 12:39:06;;;;;;;5.40;4.97;;;25.00;90.00;;;;;;5095498;28;20770;-72
2021/07/28 12:41:32;;;;;;;6.03;5.53;;;25.00;90.90;;;;;;5095798;28;20624;-71
2021/07/28 12:43:58;;;;;;;6.07;5.67;;;24.90;90.30;;;;;;5094513;28;20223;-71
2021/07/28 12:46:25;;;;;;;6.03;5.53;;;24.80;89.50;;;;;;5095471;28;20179;-72
2021/07/28 12:48:50;;;;;;;5.40;5.10;;;24.70;90.30;;;;;;5094692;28;20233;-72
2021/07/28 12:51:21;;;;;;;6.17;5.57;;;24.60;89.80;;;;;;5095616;28;20418;-72